createdAt,value
2023-04-18T00:05:55.412Z,5.43
2023-04-18T00:11:57.254Z,6.10
2023-04-18T00:18:00.878Z,5.43
2023-04-18T00:24:02.775Z,7.40
2023-04-18T00:30:05.755Z,7.07
2023-04-18T00:36:07.672Z,4.82
2023-04-18T00:42:09.484Z,7.47
2023-04-18T00:48:11.490Z,5.72
2023-04-18T00:54:14.288Z,6.82
2023-04-18T01:00:16.369Z,6.82
2023-04-18T01:06:18.299Z,6.72
2023-04-18T01:12:20.091Z,7.55
2023-04-18T01:18:22.622Z,9.05
2023-04-18T01:24:26.761Z,8.85
2023-04-18T01:30:28.616Z,9.10
2023-04-18T01:36:32.907Z,9.27
2023-04-18T01:42:34.956Z,6.95
2023-04-18T01:48:36.705Z,8.38
2023-04-18T01:54:38.592Z,8.80
2023-04-18T02:00:40.635Z,7.85
2023-04-18T02:06:42.735Z,7.50
2023-04-18T02:12:44.549Z,7.32
2023-04-18T02:18:46.740Z,8.27
2023-04-18T02:24:48.494Z,8.70
2023-04-18T02:30:50.438Z,10.20
2023-04-18T02:36:52.231Z,10.35
2023-04-18T02:42:54.100Z,7.25
2023-04-18T02:48:55.886Z,10.20
2023-04-18T02:54:57.690Z,10.57
2023-04-18T03:00:59.515Z,12.10
2023-04-18T03:07:01.494Z,9.27
2023-04-18T03:13:03.306Z,9.20
2023-04-18T03:19:05.691Z,10.60
2023-04-18T03:25:07.987Z,9.45
2023-04-18T03:31:09.937Z,10.38
2023-04-18T03:37:11.753Z,11.27
2023-04-18T03:43:13.521Z,12.02
2023-04-18T03:49:15.335Z,13.85
2023-04-18T03:55:17.429Z,11.43
2023-04-18T04:01:19.169Z,15.95
2023-04-18T04:07:21.018Z,15.70
2023-04-18T04:13:22.788Z,18.13
2023-04-18T04:19:24.715Z,16.10
2023-04-18T04:25:29.794Z,20.70
2023-04-18T04:31:32.251Z,20.77
2023-04-18T04:37:34.629Z,16.00
2023-04-18T04:43:36.551Z,16.23
2023-04-18T04:49:38.290Z,16.23
2023-04-18T04:55:40.105Z,14.02
2023-04-18T05:01:44.358Z,17.83
2023-04-18T05:07:46.465Z,16.48
2023-04-18T05:13:48.177Z,18.70
2023-04-18T05:19:49.950Z,18.02
2023-04-18T05:25:52.434Z,19.05
2023-04-18T05:31:54.235Z,17.23
2023-04-18T05:37:56.038Z,17.17
2023-04-18T05:44:04.865Z,18.02
2023-04-18T05:50:08.287Z,21.55
2023-04-18T05:56:10.097Z,19.27
2023-04-18T06:02:13.837Z,17.73
2023-04-18T06:08:15.686Z,18.47
2023-04-18T06:14:17.483Z,22.73
2023-04-18T06:20:19.270Z,25.42
2023-04-18T06:26:21.153Z,23.75
2023-04-18T06:32:22.918Z,22.88
2023-04-18T06:38:24.751Z,21.17
2023-04-18T06:44:26.471Z,23.75
2023-04-18T06:50:29.659Z,23.33
2023-04-18T06:56:32.121Z,24.00
2023-04-18T07:02:37.592Z,24.30
2023-04-18T07:08:39.582Z,22.63
2023-04-18T07:14:41.360Z,19.50
2023-04-18T07:20:43.272Z,20.63
2023-04-18T07:26:45.953Z,25.20
2023-04-18T07:32:47.989Z,21.85
2023-04-18T07:38:49.942Z,22.67
2023-04-18T07:44:57.772Z,20.55
2023-04-18T07:51:00.018Z,19.30
2023-04-18T07:57:02.129Z,20.67
2023-04-18T08:03:04.113Z,23.27
2023-04-18T08:09:06.150Z,19.90
2023-04-18T08:15:08.866Z,18.10
2023-04-18T08:21:13.192Z,19.27
2023-04-18T08:27:14.939Z,20.05
2023-04-18T08:33:18.513Z,23.77
2023-04-18T08:39:20.282Z,20.13
2023-04-18T08:45:21.988Z,17.25
2023-04-18T08:51:24.219Z,16.17
2023-04-18T08:57:30.088Z,17.08
2023-04-18T09:03:40.547Z,15.55
2023-04-18T09:09:52.410Z,17.70
2023-04-18T09:15:56.233Z,14.93
2023-04-18T09:22:04.859Z,15.27
2023-04-18T09:28:27.069Z,15.50
2023-04-18T09:34:29.436Z,11.93
2023-04-18T09:40:32.363Z,13.55
2023-04-18T09:46:34.223Z,14.82
2023-04-18T09:52:40.771Z,13.20
2023-04-18T09:58:46.000Z,13.77
2023-04-18T10:04:49.947Z,14.02
2023-04-18T10:10:51.783Z,15.93
2023-04-18T10:16:53.807Z,14.27
2023-04-18T10:22:57.740Z,12.25
2023-04-18T10:29:00.924Z,13.05
2023-04-18T10:35:02.892Z,13.85
2023-04-18T10:41:22.166Z,13.45
2023-04-18T10:47:24.049Z,12.82
2023-04-18T10:53:25.943Z,12.23
2023-04-18T10:59:30.334Z,11.45
2023-04-18T11:11:33.812Z,11.18
2023-04-18T11:17:40.255Z,13.05
2023-04-18T11:23:42.160Z,12.27
2023-04-18T11:29:44.114Z,12.57
2023-04-18T11:35:47.029Z,11.05
2023-04-18T11:41:51.877Z,9.60
2023-04-18T11:47:58.287Z,11.30
2023-04-18T11:54:00.381Z,10.45
2023-04-18T12:00:02.222Z,12.07
2023-04-18T12:06:04.383Z,11.02
2023-04-18T12:12:06.764Z,11.10
2023-04-18T12:18:08.975Z,9.48
2023-04-18T12:24:17.107Z,9.07
2023-04-18T12:30:23.019Z,8.60
2023-04-18T12:36:28.398Z,9.88
2023-04-18T12:42:30.164Z,7.75
2023-04-18T12:48:31.950Z,8.18
2023-04-18T12:54:36.699Z,9.63
2023-04-18T13:00:39.656Z,9.15
2023-04-18T13:06:41.696Z,9.20
2023-04-18T13:12:43.638Z,9.60
2023-04-18T13:18:45.458Z,8.68
2023-04-18T13:24:48.210Z,8.35
2023-04-18T13:30:49.969Z,13.00
2023-04-18T13:36:51.872Z,7.57
2023-04-18T13:42:54.063Z,6.15
2023-04-18T13:48:55.881Z,7.25
2023-04-18T13:54:57.728Z,7.38
2023-04-18T14:00:59.501Z,8.93
2023-04-18T14:07:03.378Z,6.78
2023-04-18T14:13:05.126Z,6.88
2023-04-18T14:19:06.968Z,6.95
2023-04-18T14:25:09.289Z,7.47
2023-04-18T14:31:11.070Z,6.60
2023-04-18T14:37:12.845Z,6.55
2023-04-18T14:43:14.905Z,7.50
2023-04-18T14:49:16.814Z,8.07
2023-04-18T14:55:21.358Z,6.13
2023-04-18T15:01:23.171Z,9.65
2023-04-18T15:07:25.145Z,6.85
2023-04-18T15:13:27.072Z,6.75
2023-04-18T15:19:30.929Z,8.23
2023-04-18T15:25:32.721Z,9.75
2023-04-18T15:31:36.212Z,9.68
2023-04-18T15:37:39.745Z,7.28
2023-04-18T15:43:41.923Z,9.23
2023-04-18T15:49:43.731Z,7.25
2023-04-18T15:55:48.209Z,7.80
2023-04-18T16:01:49.976Z,11.18
2023-04-18T16:07:53.815Z,9.38
2023-04-18T16:13:58.450Z,8.00
2023-04-18T16:20:00.249Z,7.40
2023-04-18T16:26:01.997Z,8.13
2023-04-18T16:32:03.973Z,8.88
2023-04-18T16:38:05.981Z,9.15
2023-04-18T16:44:07.737Z,8.45
2023-04-18T16:50:10.294Z,7.30
2023-04-18T16:56:12.071Z,7.80
2023-04-18T17:02:13.917Z,7.75
2023-04-18T17:08:17.124Z,8.77
2023-04-18T17:14:19.081Z,7.82
2023-04-18T17:20:21.414Z,8.93
2023-04-18T17:26:24.337Z,10.85
2023-04-18T17:32:26.086Z,9.10
2023-04-18T17:38:27.837Z,10.00
2023-04-18T17:44:30.125Z,7.38
2023-04-18T17:50:31.905Z,9.15
2023-04-18T17:56:33.868Z,9.75
2023-04-18T18:02:35.772Z,8.20
2023-04-18T18:08:38.203Z,9.13
2023-04-18T18:14:42.711Z,9.70
2023-04-18T18:20:44.523Z,9.65
2023-04-18T18:26:46.317Z,9.80
2023-04-18T18:32:48.378Z,9.15
2023-04-18T18:38:50.242Z,13.20
2023-04-18T18:44:52.307Z,11.00
2023-04-18T18:50:54.162Z,12.05
2023-04-18T18:56:55.932Z,13.50
2023-04-18T19:02:57.881Z,11.95
2023-04-18T19:08:59.693Z,13.85
2023-04-18T19:15:01.735Z,12.25
2023-04-18T19:21:04.317Z,11.23
2023-04-18T19:27:06.032Z,16.85
2023-04-18T19:33:07.862Z,14.98
2023-04-18T19:39:09.707Z,10.77
2023-04-18T19:45:12.210Z,16.60
2023-04-18T19:51:14.077Z,13.77
2023-04-18T19:57:15.816Z,14.80
2023-04-18T20:03:17.745Z,12.65
2023-04-18T20:09:19.702Z,12.02
2023-04-18T20:15:22.590Z,14.80
2023-04-18T20:21:24.397Z,13.93
2023-04-18T20:27:26.432Z,11.73
2023-04-18T20:33:28.174Z,12.98
2023-04-18T20:39:30.475Z,11.88
2023-04-18T20:45:34.724Z,13.18
2023-04-18T20:51:37.156Z,13.35
2023-04-18T20:57:39.048Z,11.60
2023-04-18T21:03:40.961Z,10.02
2023-04-18T21:09:42.873Z,11.70
2023-04-18T21:15:44.754Z,10.93
2023-04-18T21:21:46.464Z,12.55
2023-04-18T21:27:50.431Z,11.23
2023-04-18T21:33:53.790Z,12.05
2023-04-18T21:39:55.484Z,11.90
2023-04-18T21:45:57.347Z,9.60
2023-04-18T21:51:59.300Z,11.15
2023-04-18T21:58:01.043Z,8.10
2023-04-18T22:04:02.973Z,8.50
2023-04-18T22:10:05.919Z,10.15
2023-04-18T22:16:09.420Z,7.68
2023-04-18T22:22:11.531Z,10.07
2023-04-18T22:28:13.235Z,7.57
2023-04-18T22:34:15.161Z,8.05
2023-04-18T22:40:17.306Z,7.28
2023-04-18T22:46:19.175Z,7.53
2023-04-18T22:52:23.769Z,8.02
2023-04-18T22:58:25.752Z,5.85
2023-04-18T23:04:30.192Z,6.88
2023-04-18T23:16:33.674Z,6.72
2023-04-18T23:22:36.971Z,5.60
2023-04-18T23:28:38.716Z,9.27
2023-04-18T23:34:40.816Z,7.22
2023-04-18T23:40:42.747Z,6.60
2023-04-18T23:46:44.600Z,7.03
2023-04-18T23:52:46.527Z,8.18
2023-04-18T23:58:48.276Z,7.40
